Time,TemperatureF,DewpointF,PressureIn,WindDirection,WindDirectionDegrees,WindSpeedMPH,WindSpeedGustMPH,Humidity,HourlyPrecipIn,Conditions,Clouds,dailyrainin,SoftwareType,DateUTC
2013-02-05 00:00:00,36.4,29.2,30.12,NW,304,0.0,0.0,75,0.00,,,0.02,Wunderground v.1.15,2013-02-05 05:00:00,
2013-02-05 00:03:00,36.4,28.9,30.11,NW,304,0.0,0.0,74,0.00,,,0.00,Wunderground v.1.15,2013-02-05 05:03:00,
2013-02-05 00:05:00,36.4,28.9,30.11,NW,304,0.0,1.0,74,0.00,,,0.00,Wunderground v.1.15,2013-02-05 05:05:00,
2013-02-05 00:10:00,36.4,28.6,30.11,NW,304,0.0,0.0,73,0.00,,,0.00,Wunderground v.1.15,2013-02-05 05:10:00,
2013-02-05 00:11:00,36.5,29.0,30.11,NW,304,0.0,0.0,74,0.00,,,0.00,Wunderground v.1.15,2013-02-05 05:11:00,
2013-02-05 00:17:00,36.6,29.4,30.10,NW,304,0.0,2.0,75,0.00,,,0.00,Wunderground v.1.15,2013-02-05 05:17:00,
2013-02-05 00:22:00,36.7,28.9,30.10,NW,304,1.0,1.0,73,0.00,,,0.00,Wunderground v.1.15,2013-02-05 05:22:00,
2013-02-05 00:28:00,36.8,28.3,30.10,NW,304,1.0,1.0,71,0.00,,,0.00,Wunderground v.1.15,2013-02-05 05:28:00,
2013-02-05 00:33:00,36.9,29.1,30.09,NW,304,1.0,1.0,73,0.00,,,0.00,Wunderground v.1.15,2013-02-05 05:33:00,
2013-02-05 00:39:00,37.1,27.5,30.09,NW,304,0.0,1.0,68,0.00,,,0.00,Wunderground v.1.15,2013-02-05 05:39:00,
2013-02-05 00:45:00,37.3,27.3,30.09,NW,304,0.0,0.0,67,0.00,,,0.00,Wunderground v.1.15,2013-02-05 05:45:00,
2013-02-05 00:51:00,37.5,27.9,30.09,WNW,302,0.0,0.0,68,0.00,,,0.00,Wunderground v.1.15,2013-02-05 05:51:00,
2013-02-05 00:57:00,37.7,28.8,30.09,WNW,302,0.0,3.0,70,0.00,,,0.00,Wunderground v.1.15,2013-02-05 05:57:00,
2013-02-05 01:02:00,37.7,28.4,30.09,NW,315,1.0,1.0,69,0.00,,,0.00,Wunderground v.1.15,2013-02-05 06:02:00,
2013-02-05 01:08:00,37.7,28.1,30.08,NW,315,1.0,1.0,68,0.00,,,0.00,Wunderground v.1.15,2013-02-05 06:08:00,
2013-02-05 01:14:00,37.6,29.0,30.08,NW,315,1.0,1.0,71,0.00,,,0.00,Wunderground v.1.15,2013-02-05 06:14:00,
2013-02-05 01:19:00,37.3,28.8,30.08,NW,315,1.0,2.0,71,0.00,,,0.00,Wunderground v.1.15,2013-02-05 06:19:00,
2013-02-05 01:25:00,36.9,28.0,30.08,NW,315,1.0,2.0,70,0.00,,,0.00,Wunderground v.1.15,2013-02-05 06:25:00,
2013-02-05 01:30:00,36.7,28.2,30.07,NW,315,1.0,1.0,71,0.00,,,0.00,Wunderground v.1.15,2013-02-05 06:30:00,
2013-02-05 01:36:00,36.4,28.6,30.07,NW,311,1.0,2.0,73,0.00,,,0.00,Wunderground v.1.15,2013-02-05 06:36:00,
2013-02-05 01:41:00,36.2,28.4,30.07,NW,311,1.0,2.0,73,0.00,,,0.00,Wunderground v.1.15,2013-02-05 06:41:00,
2013-02-05 01:51:00,35.7,28.9,30.07,NW,311,1.0,1.0,76,0.00,,,0.00,Wunderground v.1.15,2013-02-05 06:51:00,
2013-02-05 01:56:00,35.4,28.3,30.06,NW,311,1.0,2.0,75,0.00,,,0.00,Wunderground v.1.15,2013-02-05 06:56:00,
2013-02-05 02:01:00,35.2,28.4,30.06,NW,311,0.0,0.0,76,0.00,,,0.00,Wunderground v.1.15,2013-02-05 07:01:00,
2013-02-05 02:06:00,35.0,28.5,30.05,NW,311,0.0,0.0,77,0.00,,,0.00,Wunderground v.1.15,2013-02-05 07:06:00,
2013-02-05 02:11:00,34.8,28.0,30.06,NW,311,0.0,0.0,76,0.00,,,0.00,Wunderground v.1.15,2013-02-05 07:11:00,
2013-02-05 02:17:00,34.6,28.1,30.06,NW,311,0.0,0.0,77,0.00,,,0.00,Wunderground v.1.15,2013-02-05 07:17:00,
2013-02-05 02:22:00,34.6,28.1,30.05,NW,311,0.0,1.0,77,0.00,,,0.00,Wunderground v.1.15,2013-02-05 07:22:00,
2013-02-05 02:28:00,34.8,28.3,30.05,NW,311,0.0,2.0,77,0.00,,,0.00,Wunderground v.1.15,2013-02-05 07:28:00,
2013-02-05 02:33:00,34.9,28.1,30.06,NW,311,1.0,2.0,76,0.00,,,0.00,Wunderground v.1.15,2013-02-05 07:33:00,
2013-02-05 02:39:00,35.0,27.9,30.06,NW,312,1.0,2.0,75,0.00,,,0.00,Wunderground v.1.15,2013-02-05 07:39:00,
2013-02-05 02:45:00,35.0,27.2,30.05,NW,312,0.0,2.0,73,0.00,,,0.00,Wunderground v.1.15,2013-02-05 07:45:00,
2013-02-05 02:51:00,35.0,26.9,30.05,NW,312,1.0,2.0,72,0.00,,,0.00,Wunderground v.1.15,2013-02-05 07:51:00,
2013-02-05 02:56:00,35.1,27.0,30.05,NNW,329,1.0,2.0,72,0.00,,,0.00,Wunderground v.1.15,2013-02-05 07:56:00,
2013-02-05 03:01:00,35.2,26.7,30.05,NNW,329,1.0,1.0,71,0.00,,,0.00,Wunderground v.1.15,2013-02-05 08:01:00,
2013-02-05 03:07:00,35.1,27.3,30.05,NNW,329,1.0,2.0,73,0.00,,,0.00,Wunderground v.1.15,2013-02-05 08:07:00,
2013-02-05 03:13:00,34.9,27.1,30.05,NNW,328,1.0,2.0,73,0.00,,,0.00,Wunderground v.1.15,2013-02-05 08:13:00,
2013-02-05 03:19:00,34.7,27.6,30.05,NNW,327,1.0,2.0,75,0.00,,,0.00,Wunderground v.1.15,2013-02-05 08:19:00,
2013-02-05 03:24:00,34.6,26.8,30.04,NNW,340,2.0,3.0,73,0.00,,,0.00,Wunderground v.1.15,2013-02-05 08:24:00,
2013-02-05 03:30:00,34.6,26.8,30.04,NW,309,2.0,3.0,73,0.00,,,0.00,Wunderground v.1.15,2013-02-05 08:30:00,
2013-02-05 03:35:00,34.4,26.3,30.04,NW,312,2.0,3.0,72,0.00,,,0.00,Wunderground v.1.15,2013-02-05 08:35:00,
2013-02-05 03:41:00,34.6,26.2,30.03,NW,319,1.0,3.0,71,0.00,,,0.00,Wunderground v.1.15,2013-02-05 08:41:00,
2013-02-05 03:51:00,34.8,26.7,30.03,NW,315,2.0,2.0,72,0.00,,,0.00,Wunderground v.1.15,2013-02-05 08:51:00,
2013-02-05 03:56:00,34.8,26.4,30.03,NW,317,1.0,3.0,71,0.00,,,0.00,Wunderground v.1.15,2013-02-05 08:56:00,
2013-02-05 04:02:00,35.0,26.2,30.04,NW,316,2.0,3.0,70,0.00,,,0.00,Wunderground v.1.15,2013-02-05 09:02:00,
2013-02-05 04:08:00,35.4,26.2,30.04,NW,315,2.0,3.0,69,0.00,,,0.00,Wunderground v.1.15,2013-02-05 09:08:00,
2013-02-05 04:13:00,35.8,26.3,30.03,NW,321,1.0,1.0,68,0.00,,,0.00,Wunderground v.1.15,2013-02-05 09:13:00,
2013-02-05 04:19:00,36.1,25.8,30.03,NNW,327,2.0,3.0,66,0.00,,,0.00,Wunderground v.1.15,2013-02-05 09:19:00,
2013-02-05 04:25:00,36.3,26.4,30.03,NW,317,2.0,3.0,67,0.00,,,0.00,Wunderground v.1.15,2013-02-05 09:25:00,
2013-02-05 04:31:00,36.7,26.0,30.04,NW,326,1.0,1.0,65,0.00,,,0.00,Wunderground v.1.15,2013-02-05 09:31:00,
2013-02-05 04:36:00,37.0,25.6,30.04,NW,306,2.0,3.0,63,0.00,,,0.00,Wunderground v.1.15,2013-02-05 09:36:00,
2013-02-05 04:41:00,37.2,25.4,30.04,NNW,327,1.0,2.0,62,0.00,,,0.00,Wunderground v.1.15,2013-02-05 09:41:00,
2013-02-05 04:51:00,37.3,26.2,30.03,NW,308,1.0,1.0,64,0.00,,,0.00,Wunderground v.1.15,2013-02-05 09:51:00,
2013-02-05 04:56:00,37.3,26.6,30.03,NW,305,1.0,4.0,65,0.00,,,0.00,Wunderground v.1.15,2013-02-05 09:56:00,
2013-02-05 05:02:00,37.3,26.6,30.03,NW,308,1.0,2.0,65,0.00,,,0.00,Wunderground v.1.15,2013-02-05 10:02:00,
2013-02-05 05:08:00,37.3,27.3,30.03,NW,312,1.0,2.0,67,0.00,,,0.00,Wunderground v.1.15,2013-02-05 10:08:00,
2013-02-05 05:13:00,37.3,27.3,30.04,NW,306,1.0,2.0,67,0.00,,,0.00,Wunderground v.1.15,2013-02-05 10:13:00,
2013-02-05 05:18:00,37.4,27.4,30.04,NW,313,1.0,2.0,67,0.00,,,0.00,Wunderground v.1.15,2013-02-05 10:18:00,
2013-02-05 05:23:00,37.5,27.2,30.04,NW,313,1.0,2.0,66,0.00,,,0.00,Wunderground v.1.15,2013-02-05 10:23:00,
2013-02-05 05:29:00,37.7,27.7,30.05,NW,312,1.0,2.0,67,0.00,,,0.00,Wunderground v.1.15,2013-02-05 10:29:00,
2013-02-05 05:35:00,37.8,27.8,30.04,NW,312,0.0,2.0,67,0.00,,,0.00,Wunderground v.1.15,2013-02-05 10:35:00,
2013-02-05 05:41:00,38.0,27.3,30.05,NW,312,1.0,1.0,65,0.00,,,0.00,Wunderground v.1.15,2013-02-05 10:41:00,
2013-02-05 05:51:00,38.1,27.4,30.04,WNW,301,1.0,2.0,65,0.00,,,0.00,Wunderground v.1.15,2013-02-05 10:51:00,
2013-02-05 05:56:00,38.2,27.8,30.04,NW,310,1.0,4.0,66,0.00,,,0.00,Wunderground v.1.15,2013-02-05 10:56:00,
2013-02-05 06:02:00,38.2,28.2,30.04,NW,323,0.0,3.0,67,0.00,,,0.00,Wunderground v.1.15,2013-02-05 11:02:00,
2013-02-05 06:07:00,38.2,27.1,30.04,NW,326,0.0,3.0,64,0.00,,,0.00,Wunderground v.1.15,2013-02-05 11:07:00,
2013-02-05 06:12:00,38.7,26.8,30.03,North,350,0.0,1.0,62,0.00,,,0.00,Wunderground v.1.15,2013-02-05 11:12:00,
2013-02-05 06:18:00,40.0,26.0,30.03,NNE,20,0.0,3.0,57,0.00,,,0.00,Wunderground v.1.15,2013-02-05 11:18:00,
2013-02-05 06:23:00,40.7,27.1,30.03,North,355,0.0,0.0,58,0.00,,,0.00,Wunderground v.1.15,2013-02-05 11:23:00,
2013-02-05 06:29:00,40.4,27.6,30.03,NNW,327,0.0,3.0,60,0.00,,,0.00,Wunderground v.1.15,2013-02-05 11:29:00,
2013-02-05 06:35:00,39.9,26.7,30.04,NNW,327,1.0,2.0,59,0.00,,,0.00,Wunderground v.1.15,2013-02-05 11:35:00,
2013-02-05 06:41:00,39.5,26.8,30.04,NW,308,1.0,1.0,60,0.00,,,0.00,Wunderground v.1.15,2013-02-05 11:41:00,
2013-02-05 06:51:00,38.3,27.6,30.04,NW,319,1.0,1.0,65,0.00,,,0.00,Wunderground v.1.15,2013-02-05 11:51:00,
2013-02-05 06:56:00,37.8,27.8,30.04,NW,313,1.0,2.0,67,0.00,,,0.00,Wunderground v.1.15,2013-02-05 11:56:00,
2013-02-05 07:01:00,37.7,27.4,30.05,NW,313,1.0,1.0,66,0.00,,,0.00,Wunderground v.1.15,2013-02-05 12:01:00,
2013-02-05 07:07:00,38.0,28.0,30.05,NW,315,0.0,2.0,67,0.00,,,0.00,Wunderground v.1.15,2013-02-05 12:07:00,
2013-02-05 07:12:00,38.2,28.6,30.05,NW,315,0.0,2.0,68,0.00,,,0.00,Wunderground v.1.15,2013-02-05 12:12:00,
2013-02-05 07:17:00,38.3,28.7,30.06,NW,315,0.0,2.0,68,0.00,,,0.00,Wunderground v.1.15,2013-02-05 12:17:00,
2013-02-05 07:23:00,38.3,28.7,30.06,NW,320,1.0,2.0,68,0.00,,,0.00,Wunderground v.1.15,2013-02-05 12:23:00,
2013-02-05 07:28:00,38.7,28.7,30.06,NW,320,0.0,2.0,67,0.00,,,0.00,Wunderground v.1.15,2013-02-05 12:28:00,
2013-02-05 07:34:00,38.8,28.0,30.06,NW,320,0.0,1.0,65,0.00,,,0.00,Wunderground v.1.15,2013-02-05 12:34:00,
2013-02-05 07:40:00,38.9,29.6,30.06,WNW,301,0.0,0.0,69,0.00,,,0.00,Wunderground v.1.15,2013-02-05 12:40:00,
2013-02-05 07:45:00,38.9,28.9,30.06,WSW,254,1.0,3.0,67,0.00,,,0.00,Wunderground v.1.15,2013-02-05 12:45:00,
2013-02-05 07:51:00,39.4,28.6,30.06,NW,319,1.0,1.0,65,0.00,,,0.00,Wunderground v.1.15,2013-02-05 12:51:00,
2013-02-05 07:56:00,39.7,28.1,30.06,NW,319,1.0,4.0,63,0.00,,,0.00,Wunderground v.1.15,2013-02-05 12:56:00,
2013-02-05 08:01:00,39.8,29.0,30.06,West,265,0.0,4.0,65,0.00,,,0.00,Wunderground v.1.15,2013-02-05 13:01:00,
2013-02-05 08:07:00,40.2,29.0,30.07,NW,308,1.0,4.0,64,0.00,,,0.00,Wunderground v.1.15,2013-02-05 13:07:00,
2013-02-05 08:13:00,40.3,29.1,30.06,NW,318,1.0,1.0,64,0.00,,,0.00,Wunderground v.1.15,2013-02-05 13:13:00,
2013-02-05 08:18:00,40.4,29.9,30.07,NW,321,0.0,1.0,66,0.00,,,0.00,Wunderground v.1.15,2013-02-05 13:18:00,
2013-02-05 08:23:00,40.6,29.0,30.07,NNW,333,0.0,0.0,63,0.00,,,0.00,Wunderground v.1.15,2013-02-05 13:23:00,
2013-02-05 08:29:00,40.8,29.2,30.07,NNW,331,0.0,1.0,63,0.00,,,0.00,Wunderground v.1.15,2013-02-05 13:29:00,
2013-02-05 08:35:00,41.2,29.5,30.07,West,279,0.0,1.0,63,0.00,,,0.00,Wunderground v.1.15,2013-02-05 13:35:00,
2013-02-05 08:41:00,41.4,30.9,30.07,NW,311,0.0,0.0,66,0.00,,,0.00,Wunderground v.1.15,2013-02-05 13:41:00,
2013-02-05 08:51:00,41.5,30.6,30.07,WNW,299,0.0,0.0,65,0.00,,,0.00,Wunderground v.1.15,2013-02-05 13:51:00,
2013-02-05 08:56:00,42.0,30.7,30.07,WNW,299,0.0,2.0,64,0.00,,,0.00,Wunderground v.1.15,2013-02-05 13:56:00,
2013-02-05 09:02:00,42.4,31.1,30.06,WNW,291,0.0,0.0,64,0.00,,,0.00,Wunderground v.1.15,2013-02-05 14:02:00,
2013-02-05 09:08:00,42.8,31.5,30.07,WNW,291,0.0,0.0,64,0.00,,,0.00,Wunderground v.1.15,2013-02-05 14:08:00,
2013-02-05 09:13:00,43.0,30.9,30.07,WNW,291,0.0,0.0,62,0.00,,,0.00,Wunderground v.1.15,2013-02-05 14:13:00,
2013-02-05 09:19:00,43.2,31.8,30.07,WNW,291,0.0,0.0,64,0.00,,,0.00,Wunderground v.1.15,2013-02-05 14:19:00,
2013-02-05 09:24:00,43.3,33.1,30.07,ENE,69,0.0,7.0,67,0.00,,,0.00,Wunderground v.1.15,2013-02-05 14:24:00,
2013-02-05 09:30:00,43.4,33.2,30.07,SW,223,1.0,4.0,67,0.00,,,0.00,Wunderground v.1.15,2013-02-05 14:30:00,
2013-02-05 09:36:00,43.5,34.0,30.06,NW,309,1.0,4.0,69,0.00,,,0.00,Wunderground v.1.15,2013-02-05 14:36:00,
2013-02-05 09:41:00,43.7,34.2,30.07,NW,315,1.0,1.0,69,0.00,,,0.00,Wunderground v.1.15,2013-02-05 14:41:00,
2013-02-05 09:51:00,43.8,35.0,30.07,NW,313,2.0,2.0,71,0.00,,,0.00,Wunderground v.1.15,2013-02-05 14:51:00,
2013-02-05 09:56:00,43.7,34.9,30.07,NNW,331,2.0,6.0,71,0.00,,,0.00,Wunderground v.1.15,2013-02-05 14:56:00,
2013-02-05 10:02:00,43.8,35.0,30.07,SSW,200,1.0,1.0,71,0.00,,,0.00,Wunderground v.1.15,2013-02-05 15:02:00,
2013-02-05 10:07:00,43.9,35.8,30.07,South,178,0.0,1.0,73,0.00,,,0.00,Wunderground v.1.15,2013-02-05 15:07:00,
2013-02-05 10:13:00,44.1,36.0,30.07,East,92,1.0,3.0,73,0.00,,,0.00,Wunderground v.1.15,2013-02-05 15:13:00,
2013-02-05 10:18:00,44.3,36.2,30.07,West,277,1.0,3.0,73,0.00,,,0.00,Wunderground v.1.15,2013-02-05 15:18:00,
2013-02-05 10:23:00,44.3,36.2,30.07,North,9,1.0,2.0,73,0.00,,,0.00,Wunderground v.1.15,2013-02-05 15:23:00,
2013-02-05 10:29:00,44.3,36.5,30.06,South,171,1.0,2.0,74,0.00,,,0.00,Wunderground v.1.15,2013-02-05 15:29:00,
2013-02-05 10:34:00,44.3,36.5,30.06,West,264,1.0,7.0,74,0.00,,,0.00,Wunderground v.1.15,2013-02-05 15:34:00,
2013-02-05 10:40:00,44.6,37.2,30.06,East,98,1.0,1.0,75,0.00,,,0.00,Wunderground v.1.15,2013-02-05 15:40:00,
2013-02-05 10:45:00,44.9,37.1,30.06,West,272,1.0,1.0,74,0.00,,,0.00,Wunderground v.1.15,2013-02-05 15:45:00,
2013-02-05 10:51:00,45.0,37.2,30.06,North,360,1.0,1.0,74,0.00,,,0.00,Wunderground v.1.15,2013-02-05 15:51:00,
2013-02-05 10:56:00,45.1,37.6,30.06,WNW,286,1.0,6.0,75,0.00,,,0.00,Wunderground v.1.15,2013-02-05 15:56:00,
2013-02-05 11:01:00,45.2,37.7,30.06,NE,41,2.0,2.0,75,0.00,,,0.00,Wunderground v.1.15,2013-02-05 16:01:00,
2013-02-05 11:06:00,45.4,37.6,30.07,WNW,300,1.0,2.0,74,0.00,,,0.00,Wunderground v.1.15,2013-02-05 16:06:00,
2013-02-05 11:12:00,45.2,38.1,30.06,SE,124,2.0,3.0,76,0.00,,,0.00,Wunderground v.1.15,2013-02-05 16:12:00,
2013-02-05 11:17:00,45.1,38.0,30.07,NW,312,2.0,3.0,76,0.00,,,0.00,Wunderground v.1.15,2013-02-05 16:17:00,
2013-02-05 11:23:00,45.3,38.5,30.07,NNW,338,1.0,2.0,77,0.00,,,0.00,Wunderground v.1.15,2013-02-05 16:23:00,
2013-02-05 11:28:00,45.1,38.3,30.07,SSE,163,1.0,6.0,77,0.00,,,0.00,Wunderground v.1.15,2013-02-05 16:28:00,
2013-02-05 11:34:00,45.0,38.2,30.07,WNW,293,1.0,2.0,77,0.00,,,0.00,Wunderground v.1.15,2013-02-05 16:34:00,
2013-02-05 11:40:00,44.6,37.8,30.07,WNW,292,2.0,3.0,77,0.00,,,0.00,Wunderground v.1.15,2013-02-05 16:40:00,
2013-02-05 11:51:00,44.5,38.1,30.07,West,273,1.0,1.0,78,0.00,,,0.00,Wunderground v.1.15,2013-02-05 16:51:00,
2013-02-05 11:56:00,44.7,38.3,30.07,NNW,342,1.0,8.0,78,0.00,,,0.00,Wunderground v.1.15,2013-02-05 16:56:00,
2013-02-05 12:01:00,44.8,38.4,30.07,West,269,0.0,0.0,78,0.00,,,0.00,Wunderground v.1.15,2013-02-05 17:01:00,
2013-02-05 12:06:00,44.9,38.5,30.07,West,269,0.0,0.0,78,0.00,,,0.00,Wunderground v.1.15,2013-02-05 17:06:00,
2013-02-05 12:11:00,45.0,38.6,30.07,SE,146,0.0,0.0,78,0.00,,,0.00,Wunderground v.1.15,2013-02-05 17:11:00,
2013-02-05 12:16:00,45.1,38.6,30.07,SW,225,0.0,1.0,78,0.00,,,0.00,Wunderground v.1.15,2013-02-05 17:16:00,
2013-02-05 12:21:00,45.3,38.8,30.06,WNW,284,1.0,1.0,78,0.00,,,0.00,Wunderground v.1.15,2013-02-05 17:21:00,
2013-02-05 12:27:00,45.6,39.1,30.06,NNW,328,1.0,1.0,78,0.00,,,0.00,Wunderground v.1.15,2013-02-05 17:27:00,
2013-02-05 12:33:00,46.0,39.5,30.05,NW,313,2.0,3.0,78,0.00,,,0.00,Wunderground v.1.15,2013-02-05 17:33:00,
2013-02-05 12:39:00,46.4,39.9,30.05,NW,322,2.0,5.0,78,0.00,,,0.00,Wunderground v.1.15,2013-02-05 17:39:00,
2013-02-05 12:44:00,46.5,39.7,30.05,West,273,2.0,3.0,77,0.00,,,0.00,Wunderground v.1.15,2013-02-05 17:44:00,
2013-02-05 12:51:00,46.9,40.1,30.04,North,355,1.0,1.0,77,0.00,,,0.00,Wunderground v.1.15,2013-02-05 17:51:00,
2013-02-05 12:56:00,47.5,40.3,30.04,NE,49,1.0,5.0,76,0.00,,,0.00,Wunderground v.1.15,2013-02-05 17:56:00,
2013-02-05 13:01:00,48.3,40.4,30.04,NNE,26,2.0,2.0,74,0.00,,,0.00,Wunderground v.1.15,2013-02-05 18:01:00,
2013-02-05 13:07:00,49.2,40.9,30.03,ESE,114,1.0,2.0,73,0.00,,,0.00,Wunderground v.1.15,2013-02-05 18:07:00,
2013-02-05 13:13:00,50.1,41.4,30.03,WNW,291,1.0,2.0,72,0.00,,,0.00,Wunderground v.1.15,2013-02-05 18:13:00,
2013-02-05 13:19:00,50.4,40.6,30.03,ENE,67,1.0,3.0,69,0.00,,,0.00,Wunderground v.1.15,2013-02-05 18:19:00,
2013-02-05 13:25:00,50.7,40.5,30.03,NW,322,1.0,5.0,68,0.00,,,0.00,Wunderground v.1.15,2013-02-05 18:25:00,
2013-02-05 13:31:00,50.4,40.6,30.03,ENE,63,2.0,2.0,69,0.00,,,0.00,Wunderground v.1.15,2013-02-05 18:31:00,
2013-02-05 13:36:00,50.1,39.9,30.03,NE,54,1.0,6.0,68,0.00,,,0.00,Wunderground v.1.15,2013-02-05 18:36:00,
2013-02-05 13:42:00,49.6,39.8,30.02,ENE,65,2.0,6.0,69,0.00,,,0.00,Wunderground v.1.15,2013-02-05 18:42:00,
2013-02-05 13:51:00,49.9,40.5,30.01,NE,40,2.0,2.0,70,0.00,,,0.00,Wunderground v.1.15,2013-02-05 18:51:00,
2013-02-05 13:57:00,50.5,40.7,30.01,NE,45,1.0,7.0,69,0.00,,,0.00,Wunderground v.1.15,2013-02-05 18:57:00,
2013-02-05 14:02:00,50.4,40.2,30.01,WSW,239,2.0,3.0,68,0.00,,,0.00,Wunderground v.1.15,2013-02-05 19:02:00,
2013-02-05 14:08:00,50.4,40.2,30.00,NNW,348,2.0,3.0,68,0.00,,,0.00,Wunderground v.1.15,2013-02-05 19:08:00,
2013-02-05 14:14:00,51.0,40.4,30.01,NNW,341,1.0,3.0,67,0.00,,,0.00,Wunderground v.1.15,2013-02-05 19:14:00,
2013-02-05 14:19:00,51.1,39.7,30.00,NW,313,2.0,5.0,65,0.00,,,0.00,Wunderground v.1.15,2013-02-05 19:19:00,
2013-02-05 14:25:00,51.4,39.6,30.00,WNW,295,1.0,2.0,64,0.00,,,0.00,Wunderground v.1.15,2013-02-05 19:25:00,
2013-02-05 14:31:00,51.8,39.6,30.00,NNW,330,1.0,2.0,63,0.00,,,0.00,Wunderground v.1.15,2013-02-05 19:31:00,
2013-02-05 14:36:00,52.0,39.4,30.00,NNW,331,2.0,6.0,62,0.00,,,0.00,Wunderground v.1.15,2013-02-05 19:36:00,
2013-02-05 14:41:00,51.9,38.9,30.00,East,87,2.0,2.0,61,0.00,,,0.00,Wunderground v.1.15,2013-02-05 19:41:00,
2013-02-05 14:51:00,52.4,38.9,29.99,ENE,66,1.0,1.0,60,0.00,,,0.00,Wunderground v.1.15,2013-02-05 19:51:00,
2013-02-05 14:56:00,53.1,39.1,29.99,WNW,298,1.0,5.0,59,0.00,,,0.00,Wunderground v.1.15,2013-02-05 19:56:00,
2013-02-05 15:01:00,53.6,39.2,29.99,NW,325,0.0,0.0,58,0.00,,,0.00,Wunderground v.1.15,2013-02-05 20:01:00,
2013-02-05 15:07:00,54.1,39.2,29.98,NNE,25,0.0,2.0,57,0.00,,,0.00,Wunderground v.1.15,2013-02-05 20:07:00,
2013-02-05 15:13:00,53.8,38.0,29.99,NNW,327,1.0,7.0,55,0.00,,,0.00,Wunderground v.1.15,2013-02-05 20:13:00,
2013-02-05 15:19:00,53.7,37.9,29.99,ESE,113,1.0,7.0,55,0.00,,,0.00,Wunderground v.1.15,2013-02-05 20:19:00,
2013-02-05 15:24:00,53.4,37.6,29.98,ESE,110,1.0,3.0,55,0.00,,,0.00,Wunderground v.1.15,2013-02-05 20:24:00,
2013-02-05 15:30:00,53.2,37.9,29.98,SE,127,1.0,1.0,56,0.00,,,0.00,Wunderground v.1.15,2013-02-05 20:30:00,
2013-02-05 15:35:00,53.5,37.7,29.98,North,350,1.0,3.0,55,0.00,,,0.00,Wunderground v.1.15,2013-02-05 20:35:00,
2013-02-05 15:40:00,53.4,36.2,29.99,NNE,19,1.0,3.0,52,0.00,,,0.00,Wunderground v.1.15,2013-02-05 20:40:00,
2013-02-05 16:51:00,52.1,36.4,29.99,NW,315,1.0,3.0,55,0.00,,,0.00,Wunderground v.1.15,2013-02-05 21:51:00,
2013-02-05 16:56:00,52.1,35.9,29.99,North,5,1.0,5.0,54,0.00,,,0.00,Wunderground v.1.15,2013-02-05 21:56:00,
2013-02-05 17:02:00,52.1,35.9,29.99,NW,321,2.0,7.0,54,0.00,,,0.00,Wunderground v.1.15,2013-02-05 22:02:00,
2013-02-05 17:08:00,52.2,35.6,29.99,North,360,2.0,7.0,53,0.00,,,0.00,Wunderground v.1.15,2013-02-05 22:08:00,
2013-02-05 17:13:00,52.1,35.9,29.99,NNW,327,2.0,3.0,54,0.00,,,0.00,Wunderground v.1.15,2013-02-05 22:13:00,
2013-02-05 17:18:00,51.9,35.8,29.99,NW,306,1.0,3.0,54,0.00,,,0.00,Wunderground v.1.15,2013-02-05 22:18:00,
2013-02-05 17:23:00,51.5,35.4,29.99,NW,323,1.0,3.0,54,0.00,,,0.00,Wunderground v.1.15,2013-02-05 22:23:00,
2013-02-05 17:29:00,51.5,35.9,29.99,NW,315,2.0,3.0,55,0.00,,,0.00,Wunderground v.1.15,2013-02-05 22:29:00,
2013-02-05 17:35:00,51.3,35.7,29.99,North,355,1.0,2.0,55,0.00,,,0.00,Wunderground v.1.15,2013-02-05 22:35:00,
2013-02-05 17:40:00,51.1,36.8,29.99,NNW,331,0.0,0.0,58,0.00,,,0.00,Wunderground v.1.15,2013-02-05 22:40:00,
2013-02-05 17:51:00,49.4,36.9,29.99,NNW,327,1.0,2.0,62,0.00,,,0.00,Wunderground v.1.15,2013-02-05 22:51:00,
2013-02-05 17:56:00,48.3,36.3,29.99,NW,326,1.0,4.0,63,0.00,,,0.00,Wunderground v.1.15,2013-02-05 22:56:00,
2013-02-05 18:02:00,47.6,36.8,29.99,NW,318,1.0,1.0,66,0.00,,,0.00,Wunderground v.1.15,2013-02-05 23:02:00,
2013-02-05 18:08:00,46.9,36.5,29.99,NW,319,0.0,1.0,67,0.00,,,0.00,Wunderground v.1.15,2013-02-05 23:08:00,
2013-02-05 18:13:00,46.5,36.5,29.99,NW,319,0.0,1.0,68,0.00,,,0.00,Wunderground v.1.15,2013-02-05 23:13:00,
2013-02-05 18:18:00,46.0,36.8,29.99,NNW,342,0.0,1.0,70,0.00,,,0.00,Wunderground v.1.15,2013-02-05 23:18:00,
2013-02-05 18:23:00,45.6,36.4,29.99,NNW,342,0.0,1.0,70,0.00,,,0.00,Wunderground v.1.15,2013-02-05 23:23:00,
2013-02-05 18:29:00,45.0,36.5,29.99,NNW,338,1.0,2.0,72,0.00,,,0.00,Wunderground v.1.15,2013-02-05 23:29:00,
2013-02-05 18:34:00,44.7,35.9,29.99,NNW,329,1.0,2.0,71,0.00,,,0.00,Wunderground v.1.15,2013-02-05 23:34:00,
2013-02-05 18:40:00,44.4,36.3,29.99,NW,314,1.0,2.0,73,0.00,,,0.00,Wunderground v.1.15,2013-02-05 23:40:00,
2013-02-05 18:45:00,44.3,36.2,30.00,NW,311,1.0,3.0,73,0.00,,,0.00,Wunderground v.1.15,2013-02-05 23:45:00,
2013-02-05 18:51:00,44.1,36.3,30.00,NW,311,1.0,2.0,74,0.00,,,0.00,Wunderground v.1.15,2013-02-05 23:51:00,
2013-02-05 18:56:00,44.1,36.3,30.00,NW,321,1.0,4.0,74,0.00,,,0.00,Wunderground v.1.15,2013-02-05 23:56:00,
2013-02-05 19:02:00,44.1,36.3,30.00,NW,321,2.0,2.0,74,0.00,,,0.00,Wunderground v.1.15,2013-02-06 00:02:00,
2013-02-05 19:08:00,43.9,36.5,30.01,NW,321,2.0,2.0,75,0.00,,,0.00,Wunderground v.1.15,2013-02-06 00:08:00,
2013-02-05 19:14:00,43.8,36.4,30.01,NW,321,1.0,2.0,75,0.00,,,0.00,Wunderground v.1.15,2013-02-06 00:14:00,
2013-02-05 19:19:00,43.8,36.4,30.01,NW,321,1.0,2.0,75,0.00,,,0.00,Wunderground v.1.15,2013-02-06 00:19:00,
2013-02-05 19:25:00,43.7,36.3,30.02,NW,321,1.0,3.0,75,0.00,,,0.00,Wunderground v.1.15,2013-02-06 00:25:00,
2013-02-05 19:31:00,43.6,36.5,30.02,NW,321,1.0,1.0,76,0.00,,,0.00,Wunderground v.1.15,2013-02-06 00:31:00,
2013-02-05 19:37:00,43.4,36.3,30.02,NW,321,1.0,2.0,76,0.00,,,0.00,Wunderground v.1.15,2013-02-06 00:37:00,
2013-02-05 19:42:00,43.3,36.2,30.02,NW,321,1.0,1.0,76,0.00,,,0.00,Wunderground v.1.15,2013-02-06 00:42:00,
2013-02-05 19:51:00,43.2,36.5,30.02,NW,315,1.0,1.0,77,0.00,,,0.00,Wunderground v.1.15,2013-02-06 00:51:00,
2013-02-05 19:56:00,43.1,36.4,30.02,NW,315,0.0,3.0,77,0.00,,,0.00,Wunderground v.1.15,2013-02-06 00:56:00,
2013-02-05 20:01:00,43.0,36.6,30.02,NW,315,0.0,0.0,78,0.00,,,0.00,Wunderground v.1.15,2013-02-06 01:01:00,
2013-02-05 20:06:00,43.0,36.9,30.02,NW,316,1.0,2.0,79,0.00,,,0.00,Wunderground v.1.15,2013-02-06 01:06:00,
2013-02-05 20:11:00,43.1,37.7,30.02,NW,316,0.0,1.0,81,0.00,,,0.00,Wunderground v.1.15,2013-02-06 01:11:00,
2013-02-05 20:17:00,43.2,38.1,30.02,NW,316,0.0,2.0,82,0.00,,,0.00,Wunderground v.1.15,2013-02-06 01:17:00,
2013-02-05 20:22:00,43.3,38.5,30.03,NW,316,1.0,2.0,83,0.00,,,0.00,Wunderground v.1.15,2013-02-06 01:22:00,
2013-02-05 20:28:00,43.4,38.9,30.03,NW,316,1.0,3.0,84,0.00,,,0.00,Wunderground v.1.15,2013-02-06 01:28:00,
2013-02-05 20:33:00,43.4,39.2,30.03,NW,316,2.0,2.0,85,0.00,,,0.00,Wunderground v.1.15,2013-02-06 01:33:00,
2013-02-05 20:39:00,43.3,39.1,30.03,NW,316,2.0,3.0,85,0.00,,,0.00,Wunderground v.1.15,2013-02-06 01:39:00,
2013-02-05 20:44:00,43.1,38.9,30.03,NW,316,2.0,2.0,85,0.00,,,0.00,Wunderground v.1.15,2013-02-06 01:44:00,
2013-02-05 20:51:00,43.0,38.8,30.03,NW,316,2.0,2.0,85,0.00,,,0.00,Wunderground v.1.15,2013-02-06 01:51:00,
2013-02-05 20:56:00,42.9,38.7,30.03,NW,316,2.0,2.0,85,0.00,,,0.00,Wunderground v.1.15,2013-02-06 01:56:00,
2013-02-05 21:01:00,42.7,38.5,30.04,NW,323,2.0,2.0,85,0.00,,,0.00,Wunderground v.1.15,2013-02-06 02:01:00,
2013-02-05 21:07:00,42.5,38.3,30.03,NW,323,2.0,2.0,85,0.00,,,0.00,Wunderground v.1.15,2013-02-06 02:07:00,
2013-02-05 21:12:00,42.4,38.2,30.03,NW,323,2.0,2.0,85,0.00,,,0.00,Wunderground v.1.15,2013-02-06 02:12:00,
2013-02-05 21:18:00,42.2,38.0,30.04,NW,323,2.0,3.0,85,0.00,,,0.00,Wunderground v.1.15,2013-02-06 02:18:00,
2013-02-05 21:23:00,42.0,37.8,30.04,NW,317,1.0,2.0,85,0.00,,,0.00,Wunderground v.1.15,2013-02-06 02:23:00,
2013-02-05 21:29:00,42.0,37.5,30.04,NW,309,1.0,2.0,84,0.00,,,0.00,Wunderground v.1.15,2013-02-06 02:29:00,
2013-02-05 21:34:00,42.0,37.2,30.04,NW,313,1.0,1.0,83,0.00,,,0.00,Wunderground v.1.15,2013-02-06 02:34:00,
2013-02-05 21:39:00,41.9,37.1,30.04,NW,313,1.0,3.0,83,0.00,,,0.00,Wunderground v.1.15,2013-02-06 02:39:00,
2013-02-05 21:45:00,41.8,37.0,30.04,NW,313,1.0,1.0,83,0.00,,,0.00,Wunderground v.1.15,2013-02-06 02:45:00,
2013-02-05 21:51:00,41.6,36.8,30.04,NW,313,1.0,1.0,83,0.00,,,0.00,Wunderground v.1.15,2013-02-06 02:51:00,
2013-02-05 21:56:00,41.6,36.8,30.04,NW,315,1.0,4.0,83,0.00,,,0.00,Wunderground v.1.15,2013-02-06 02:56:00,
2013-02-05 22:02:00,41.5,36.7,30.05,NW,318,1.0,1.0,83,0.00,,,0.00,Wunderground v.1.15,2013-02-06 03:02:00,
2013-02-05 22:07:00,41.6,36.8,30.05,NW,312,1.0,4.0,83,0.00,,,0.00,Wunderground v.1.15,2013-02-06 03:07:00,
2013-02-05 22:13:00,41.6,36.8,30.05,NW,312,1.0,3.0,83,0.00,,,0.00,Wunderground v.1.15,2013-02-06 03:13:00,
2013-02-05 22:18:00,41.6,36.8,30.05,NW,312,1.0,3.0,83,0.00,,,0.00,Wunderground v.1.15,2013-02-06 03:18:00,
2013-02-05 22:23:00,41.5,36.7,30.04,NW,314,1.0,3.0,83,0.00,,,0.00,Wunderground v.1.15,2013-02-06 03:23:00,
2013-02-05 22:28:00,41.3,36.5,30.05,NW,314,1.0,3.0,83,0.00,,,0.00,Wunderground v.1.15,2013-02-06 03:28:00,
2013-02-05 22:34:00,41.2,36.4,30.04,NW,314,1.0,2.0,83,0.00,,,0.00,Wunderground v.1.15,2013-02-06 03:34:00,
2013-02-05 22:39:00,41.1,36.6,30.04,NW,316,1.0,3.0,84,0.00,,,0.00,Wunderground v.1.15,2013-02-06 03:39:00,
2013-02-05 22:45:00,41.0,36.5,30.04,NW,318,1.0,4.0,84,0.00,,,0.00,Wunderground v.1.15,2013-02-06 03:45:00,
2013-02-05 22:51:00,41.0,36.5,30.04,NW,318,1.0,1.0,84,0.00,,,0.00,Wunderground v.1.15,2013-02-06 03:51:00,
2013-02-05 22:56:00,40.9,36.4,30.04,NW,318,1.0,2.0,84,0.00,,,0.00,Wunderground v.1.15,2013-02-06 03:56:00,
2013-02-05 23:02:00,40.7,36.2,30.04,NW,318,1.0,1.0,84,0.00,,,0.00,Wunderground v.1.15,2013-02-06 04:02:00,
2013-02-05 23:07:00,40.5,36.0,30.04,NW,318,0.0,1.0,84,0.00,,,0.00,Wunderground v.1.15,2013-02-06 04:07:00,
2013-02-05 23:13:00,40.4,35.9,30.04,NW,318,0.0,1.0,84,0.00,,,0.00,Wunderground v.1.15,2013-02-06 04:13:00,
2013-02-05 23:18:00,40.3,36.1,30.04,NW,318,0.0,1.0,85,0.00,,,0.00,Wunderground v.1.15,2013-02-06 04:18:00,
2013-02-05 23:24:00,40.2,36.1,30.04,NW,318,0.0,1.0,85,0.00,,,0.00,Wunderground v.1.15,2013-02-06 04:24:00,
2013-02-05 23:30:00,40.1,36.2,30.04,NW,318,0.0,0.0,86,0.00,,,0.00,Wunderground v.1.15,2013-02-06 04:30:00,
2013-02-05 23:35:00,40.0,36.2,30.04,NW,318,0.0,1.0,86,0.00,,,0.00,Wunderground v.1.15,2013-02-06 04:35:00,
2013-02-05 23:41:00,40.0,36.4,30.04,NW,318,0.0,0.0,87,0.00,,,0.00,Wunderground v.1.15,2013-02-06 04:41:00,
2013-02-05 23:51:00,40.0,36.4,30.04,NW,318,0.0,3.0,87,0.00,,,0.00,Wunderground v.1.15,2013-02-06 04:51:00,
2013-02-05 23:56:00,40.0,36.4,30.04,NW,318,1.0,3.0,87,0.00,,,0.00,Wunderground v.1.15,2013-02-06 04:56:00,